HB9Y2 Weather Reports


Display with metric or nautical units.
time (UTC)temp
F
wind
direction
speed
MPH
gust
MPH
rain 1hr
in
rain 24hr
in
rain mn
in
humidity
%
barometer
mb
20200531172925 52 235 0.0 2.0 0.00 0.00 0.00 51 1032.6
20200531171931 53 216 1.0 5.0 0.00 0.00 0.00 49 1032.6
20200531170925 53 248 4.0 10.0 0.00 0.00 0.00 50 1032.9
20200531165932 54 168 2.0 5.0 0.00 0.00 0.00 49 1033.0
20200531164923 54 234 2.0 5.0 0.00 0.00 0.00 49 1033.0
20200531163931 54 229 1.0 5.0 0.00 0.00 0.00 48 1032.5
20200531162923 55 268 1.0 5.0 0.00 0.00 0.00 47 1032.7
20200531161932 55 191 1.0 2.0 0.00 0.00 0.00 43 1032.7
20200531160926 57 209 0.0 2.0 0.00 0.00 0.00 43 1033.1
20200531155931 58 217 1.0 2.0 0.00 0.00 0.00 42 1033.9
20200531154925 59 271 2.0 2.0 0.00 0.00 0.00 39 1034.4
20200531153931 60 256 2.0 7.0 0.00 0.00 0.00 35 1034.3
20200531152923 60 233 1.0 5.0 0.00 0.00 0.00 32 1035.0
20200531151932 60 214 2.0 5.0 0.00 0.00 0.00 29 1035.3
20200531150928 59 243 1.0 5.0 0.00 0.00 0.00 30 1034.8
20200531145932 59 232 2.0 7.0 0.00 0.00 0.00 31 1034.8
20200531144925 60 137 1.0 2.0 0.00 0.00 0.00 32 1034.7
20200531143932 60 344 0.0 2.0 0.00 0.00 0.00 29 1035.3
20200531142923 60 209 3.0 5.0 0.00 0.00 0.00 31 1034.8
20200531141933 60 247 0.0 2.0 0.00 0.00 0.00 31 1034.9
20200531140925 60 222 0.0 2.0 0.00 0.00 0.00 33 1034.9
20200531135932 60 145 3.0 7.0 0.00 0.00 0.00 30 1034.8
20200531134923 60 191 0.0 2.0 0.00 0.00 0.00 31 1034.9
20200531133923 60 313 2.0 7.0 0.00 0.00 0.00 33 1034.9
20200531132926 60 331 2.0 7.0 0.00 0.00 0.00 32 1034.9
20200531131931 60 198 0.0 2.0 0.00 0.00 0.00 31 1034.8
20200531130925 59 342 2.0 5.0 0.00 0.00 0.00 31 1034.8
20200531125932 59 340 1.0 2.0 0.00 0.00 0.00 32 1034.9
20200531124923 59 303 1.0 5.0 0.00 0.00 0.00 33 1034.6
20200531123932 59 274 3.0 5.0 0.00 0.00 0.00 33 1034.5
20200531122922 59 287 1.0 2.0 0.00 0.00 0.00 33 1034.7
20200531121930 59 170 1.0 2.0 0.00 0.00 0.00 33 1034.3
20200531120922 59 223 0.0 2.0 0.00 0.00 0.00 31 1034.5
20200531115930 59 288 1.0 5.0 0.00 0.00 0.00 32 1034.5
20200531114925 59 342 2.0 5.0 0.00 0.00 0.00 33 1034.6
20200531113932 59 0.0 0.0 0.00 0.00 0.00 32 1034.5
20200531112818 59 327 1.0 5.0 0.00 0.00 0.00 34 1034.8
20200531111829 59 58 0.0 2.0 0.00 0.00 0.00 35 1034.5
20200531110818 59 250 1.0 2.0 0.00 0.00 0.00 35 1034.1
20200531105826 58 314 1.0 2.0 0.00 0.00 0.00 35 1034.0
20200531104818 58 249 1.0 5.0 0.00 0.00 0.00 40 1033.9
20200531103826 58 181 1.0 5.0 0.00 0.00 0.00 40 1033.9
20200531102820 58 1 3.0 5.0 0.00 0.00 0.00 42 1033.6
20200531101829 57 229 0.0 2.0 0.00 0.00 0.00 42 1033.6
20200531100818 56 161 1.0 2.0 0.00 0.00 0.00 43 1033.1
20200531095829 55 272 0.0 2.0 0.00 0.00 0.00 44 1033.1
20200531094836 55 356 1.0 5.0 0.00 0.00 0.00 46 1032.3
20200531093826 55 267 1.0 2.0 0.00 0.00 0.00 43 1032.7
20200531092834 54 297 0.0 2.0 0.00 0.00 0.00 48 1032.8
20200531091829 53 314 0.0 2.0 0.00 0.00 0.00 46 1032.1
20200531090821 53 147 1.0 2.0 0.00 0.00 0.00 50 1031.9
20200531085826 52 0.0 0.0 0.00 0.00 0.00 48 1031.6
20200531084834 51 6 1.0 5.0 0.00 0.00 0.00 49 1030.8
20200531083827 51 132 0.0 2.0 0.00 0.00 0.00 52 1030.5
20200531082834 51 285 1.0 5.0 0.00 0.00 0.00 49 1030.5
20200531081826 50 0.0 0.0 0.00 0.00 0.00 51 1030.5
20200531080834 50 0.0 0.0 0.00 0.00 0.00 53 1030.2
20200531075829 49 299 0.0 2.0 0.00 0.00 0.00 56 1029.9
20200531074822 49 349 0.0 2.0 0.00 0.00 0.00 57 1029.8
20200531073826 47 0.0 0.0 0.00 0.00 0.00 59 1029.7
20200531072834 46 244 0.0 2.0 0.00 0.00 0.00 62 1029.0
20200531071828 45 272 0.0 2.0 0.00 0.00 0.00 68 1029.4
20200531070834 45 0.0 0.0 0.00 0.00 0.00 70 1029.1
20200531065827 44 0.0 0.0 0.00 0.00 0.00 69 1029.1
20200531064834 42 123 0.0 2.0 0.00 0.00 0.00 73 1028.7
20200531063826 41 238 0.0 2.0 0.00 0.00 0.00 80 1028.4
20200531062822 41 0.0 0.0 0.00 0.00 0.00 83 1028.3
20200531061830 40 143 0.0 2.0 0.00 0.00 0.00 84 1028.3
20200531060834 40 0.0 0.0 0.00 0.00 0.00 87 1028.3
20200531055828 40 0.0 0.0 0.00 0.00 0.00 87 1028.4
20200531054835 41 0.0 0.0 0.00 0.00 0.00 86 1028.8
20200531053825 41 0.0 0.0 0.00 0.00 0.00 83 1028.8
20200531052834 42 0.0 0.0 0.00 0.00 0.00 80 1029.0
20200531051829 42 0.0 0.0 0.00 0.00 0.00 81 1028.8
20200531050821 42 0.0 0.0 0.00 0.00 0.00 77 1029.3
20200531045828 41 0.0 0.0 0.00 0.00 0.00 74 1028.9
20200531044834 40 0.0 0.0 0.00 0.00 0.00 82 1028.7
20200531043826 38 187 0.0 2.0 0.00 0.00 0.00 94 1028.5
20200531042833 38 0.0 0.0 0.00 0.00 0.00 98 1028.4
20200531041827 37 0.0 0.0 0.00 0.00 0.00 99 1028.5
20200531040833 37 0.0 0.0 0.00 0.00 0.00 99 1028.5
20200531035828 37 0.0 0.0 0.00 0.00 0.00 96 1028.4
20200531034821 37 0.0 0.0 0.00 0.00 0.00 95 1028.6
20200531033825 37 0.0 0.0 0.00 0.00 0.00 95 1028.7
20200531032835 38 0.0 0.0 0.00 0.00 0.00 99 1029.2
20200531031828 38 0.0 0.0 0.00 0.00 0.00 99 1029.2
20200531030833 38 0.0 0.0 0.00 0.00 0.00 99 1029.7
20200531025827 38 216 0.0 2.0 0.00 0.00 0.00 99 1029.2
20200531024833 38 210 0.0 2.0 0.00 0.00 0.00 99 1029.4
20200531023827 38 0.0 0.0 0.00 0.00 0.00 99 1028.7
20200531022823 37 0.0 0.0 0.00 0.00 0.00 99 1028.5
20200531021825 37 0.0 0.0 0.00 0.00 0.00 99 1028.5
20200531020833 37 0.0 0.0 0.00 0.00 0.00 95 1029.0
20200531015828 37 0.0 0.0 0.00 0.00 0.00 94 1029.0
20200531014834 37 0.0 0.0 0.00 0.00 0.00 93 1029.1
20200531013825 37 0.0 0.0 0.00 0.00 0.00 92 1029.2
20200531012833 37 0.0 0.0 0.00 0.00 0.00 95 1029.3
20200531011828 37 0.0 0.0 0.00 0.00 0.00 92 1029.4
20200531010819 37 0.0 0.0 0.00 0.00 0.00 92 1029.7
20200531005827 37 0.0 0.0 0.00 0.00 0.00 92 1030.2
20200531004833 37 0.0 0.0 0.00 0.00 0.00 91 1030.2
20200531003825 37 0.0 0.0 0.00 0.00 0.00 97 1029.8
20200531002833 37 0.0 0.0 0.00 0.00 0.00 99 1030.3
20200531001825 37 0.0 0.0 0.00 0.00 0.00 99 1030.2
20200531000833 37 0.0 0.0 0.00 0.00 0.00 97 1030.7
20200530235827 37 0.0 0.0 0.00 0.00 0.00 97 1030.7
20200530234819 37 0.0 0.0 0.00 0.00 0.00 97 1030.3
20200530233828 37 0.0 0.0 0.00 0.00 0.00 96 1029.5
20200530232833 37 0.0 0.0 0.00 0.00 0.00 98 1030.0
20200530231825 37 0.0 0.0 0.00 0.00 0.00 98 1030.0
20200530230833 37 0.0 0.0 0.00 0.00 0.00 97 1029.9
20200530225826 37 0.0 0.0 0.00 0.00 0.00 93 1030.2
20200530224833 37 0.0 0.0 0.00 0.00 0.00 94 1029.8
20200530223827 37 0.0 0.0 0.00 0.00 0.00 93 1029.2
20200530222819 37 0.0 0.0 0.00 0.00 0.00 90 1029.2
20200530221825 37 0.0 0.0 0.00 0.00 0.00 88 1029.7
20200530220833 37 20 0.0 2.0 0.00 0.00 0.00 89 1029.7
20200530215827 37 0.0 0.0 0.00 0.00 0.00 93 1029.8
20200530214833 37 0.0 0.0 0.00 0.00 0.00 92 1029.9
20200530213824 38 0.0 0.0 0.00 0.00 0.00 90 1029.7
20200530212832 38 0.0 0.0 0.00 0.00 0.00 90 1029.9
20200530211828 38 0.0 0.0 0.00 0.00 0.00 87 1030.0
20200530210823 38 0.0 0.0 0.00 0.00 0.00 86 1030.0
20200530205827 38 0.0 0.0 0.00 0.00 0.00 85 1030.0
20200530204834 38 0.0 0.0 0.00 0.00 0.00 86 1029.8
20200530203827 38 0.0 0.0 0.00 0.00 0.00 86 1029.3
20200530202832 39 0.0 0.0 0.00 0.00 0.00 86 1029.6
20200530201825 39 0.0 0.0 0.00 0.00 0.00 85 1029.6
20200530200832 39 0.0 0.0 0.00 0.00 0.00 85 1029.4
20200530195824 39 0.0 0.0 0.00 0.00 0.00 84 1029.6
20200530194834 40 0.0 0.0 0.00 0.00 0.00 83 1029.6
20200530193827 41 61 0.0 2.0 0.00 0.00 0.00 77 1028.9
20200530192832 41 0.0 0.0 0.00 0.00 0.00 74 1029.0
20200530191827 42 0.0 0.0 0.00 0.00 0.00 72 1029.0
20200530190832 42 145 0.0 2.0 0.00 0.00 0.00 71 1028.6
20200530185825 42 143 0.0 2.0 0.00 0.00 0.00 72 1028.1
20200530184832 43 258 0.0 2.0 0.00 0.00 0.00 71 1028.1
20200530183827 43 263 0.0 2.0 0.00 0.00 0.00 70 1028.0
20200530182832 44 271 1.0 7.0 0.00 0.00 0.00 70 1028.6
20200530181826 44 224 0.0 2.0 0.00 0.00 0.00 67 1028.6
20200530180833 44 221 1.0 2.0 0.00 0.00 0.00 65 1028.6
20200530175826 45 224 0.0 2.0 0.00 0.00 0.00 66 1028.6
20200530174832 45 282 2.0 5.0 0.00 0.00 0.00 69 1028.6
20200530173825 45 252 1.0 5.0 0.00 0.00 0.00 66 1028.6